createdAt,value
2023-05-07T00:01:22.954Z,2.77
2023-05-07T00:03:49.775Z,2.80
2023-05-07T00:06:16.498Z,2.30
2023-05-07T00:08:43.292Z,2.70
2023-05-07T00:11:09.911Z,2.47
2023-05-07T00:13:38.592Z,2.77
2023-05-07T00:16:06.109Z,3.00
2023-05-07T00:18:32.749Z,2.60
2023-05-07T00:20:59.389Z,3.00
2023-05-07T00:23:25.996Z,2.93
2023-05-07T00:25:52.635Z,3.00
2023-05-07T00:28:19.203Z,3.27
2023-05-07T00:30:45.949Z,3.40
2023-05-07T00:33:12.543Z,3.87
2023-05-07T00:35:39.157Z,2.87
2023-05-07T00:38:05.970Z,3.70
2023-05-07T00:40:32.670Z,3.40
2023-05-07T00:42:59.601Z,4.07
2023-05-07T00:45:29.968Z,3.10
2023-05-07T00:47:58.982Z,2.90
2023-05-07T00:50:26.897Z,3.00
2023-05-07T00:52:54.135Z,3.23
2023-05-07T00:55:21.562Z,3.43
2023-05-07T00:57:48.429Z,3.27
2023-05-07T01:00:15.547Z,3.23
2023-05-07T01:02:43.038Z,2.93
2023-05-07T01:05:13.593Z,5.67
2023-05-07T01:07:41.857Z,3.20
2023-05-07T01:10:10.193Z,3.63
2023-05-07T01:12:38.675Z,3.90
2023-05-07T01:15:07.060Z,3.03
2023-05-07T01:17:37.811Z,3.37
2023-05-07T01:20:06.450Z,3.87
2023-05-07T01:22:37.731Z,2.97
2023-05-07T01:25:06.084Z,3.20
2023-05-07T01:27:34.304Z,3.20
2023-05-07T01:30:01.020Z,4.17
2023-05-07T01:32:42.952Z,3.60
2023-05-07T01:35:14.662Z,3.00
2023-05-07T01:37:41.869Z,3.50
2023-05-07T01:40:09.725Z,3.40
2023-05-07T01:42:36.769Z,3.37
2023-05-07T01:45:03.582Z,3.80
2023-05-07T01:47:31.388Z,4.40
2023-05-07T01:49:58.939Z,4.43
2023-05-07T01:52:26.092Z,3.90
2023-05-07T01:54:52.735Z,3.80
2023-05-07T01:57:19.346Z,4.10
2023-05-07T01:59:46.273Z,3.80
2023-05-07T02:02:12.868Z,4.73
2023-05-07T02:04:39.622Z,3.83
2023-05-07T02:07:06.240Z,3.93
2023-05-07T02:09:32.832Z,4.40
2023-05-07T02:11:59.396Z,4.00
2023-05-07T02:14:26.981Z,3.77
2023-05-07T02:16:53.649Z,4.80
2023-05-07T02:19:22.066Z,4.93
2023-05-07T02:21:49.120Z,4.07
2023-05-07T02:24:15.845Z,4.50
2023-05-07T02:26:42.489Z,4.50
2023-05-07T02:29:09.203Z,4.27
2023-05-07T02:31:35.940Z,4.87
2023-05-07T02:34:02.783Z,4.83
2023-05-07T02:36:29.622Z,5.20
2023-05-07T02:38:56.378Z,4.60
2023-05-07T02:41:22.955Z,3.60
2023-05-07T02:43:49.611Z,4.10
2023-05-07T02:46:16.776Z,4.33
2023-05-07T02:48:43.922Z,3.90
2023-05-07T02:51:10.677Z,3.70
2023-05-07T02:53:37.656Z,3.80
2023-05-07T02:56:04.452Z,4.10
2023-05-07T02:58:31.087Z,3.87
2023-05-07T03:00:57.767Z,3.80
2023-05-07T03:03:24.528Z,4.63
2023-05-07T03:05:51.120Z,4.03
2023-05-07T03:08:17.898Z,3.33
2023-05-07T03:10:44.534Z,3.30
2023-05-07T03:13:11.479Z,3.83
2023-05-07T03:15:38.151Z,3.53
2023-05-07T03:18:04.950Z,3.43
2023-05-07T03:20:32.610Z,3.17
2023-05-07T03:22:59.385Z,3.47
2023-05-07T03:25:26.004Z,4.07
2023-05-07T03:27:52.694Z,5.43
2023-05-07T03:30:21.047Z,3.70
2023-05-07T03:32:47.645Z,3.20
2023-05-07T03:35:14.272Z,3.43
2023-05-07T03:37:41.612Z,4.00
2023-05-07T03:40:10.509Z,3.30
2023-05-07T03:42:37.576Z,3.87
2023-05-07T03:45:04.510Z,3.27
2023-05-07T03:47:31.343Z,3.00
2023-05-07T03:49:58.186Z,3.00
2023-05-07T03:52:26.865Z,3.53
2023-05-07T03:54:54.423Z,2.80
2023-05-07T03:57:21.478Z,3.33
2023-05-07T03:59:48.090Z,2.90
2023-05-07T04:02:14.819Z,3.87
2023-05-07T04:04:41.438Z,3.10
2023-05-07T04:07:08.377Z,2.90
2023-05-07T04:09:35.105Z,3.83
2023-05-07T04:12:02.311Z,3.20
2023-05-07T04:14:29.006Z,3.90
2023-05-07T04:16:55.717Z,3.67
2023-05-07T04:19:22.495Z,3.63
2023-05-07T04:21:49.424Z,3.50
2023-05-07T04:24:16.162Z,3.20
2023-05-07T04:26:43.121Z,3.20
2023-05-07T04:29:09.705Z,3.30
2023-05-07T04:31:36.371Z,3.40
2023-05-07T04:34:02.986Z,3.57
2023-05-07T04:36:30.065Z,3.30
2023-05-07T04:38:56.776Z,3.77
2023-05-07T04:41:23.388Z,3.23
2023-05-07T04:43:50.010Z,2.93
2023-05-07T04:46:16.910Z,3.40
2023-05-07T04:48:43.580Z,3.97
2023-05-07T04:51:10.250Z,3.10
2023-05-07T04:53:36.961Z,3.60
2023-05-07T04:56:03.668Z,3.30
2023-05-07T04:58:32.579Z,3.30
2023-05-07T05:01:01.271Z,2.80
2023-05-07T05:03:28.236Z,2.60
2023-05-07T05:05:54.944Z,2.90
2023-05-07T05:08:21.550Z,2.77
2023-05-07T05:10:49.735Z,2.60
2023-05-07T05:13:16.541Z,2.47
2023-05-07T05:15:43.216Z,2.90
2023-05-07T05:18:09.912Z,2.90
2023-05-07T05:20:36.562Z,3.07
2023-05-07T05:23:03.289Z,2.90
2023-05-07T05:25:29.915Z,2.67
2023-05-07T05:27:56.558Z,3.30
2023-05-07T05:30:23.300Z,3.83
2023-05-07T05:32:50.012Z,3.00
2023-05-07T05:35:16.751Z,3.20
2023-05-07T05:37:43.427Z,3.37
2023-05-07T05:40:10.591Z,3.03
2023-05-07T05:42:37.527Z,2.53
2023-05-07T05:45:04.395Z,2.97
2023-05-07T05:47:31.265Z,3.60
2023-05-07T05:49:57.968Z,3.20
2023-05-07T05:52:24.810Z,2.40
2023-05-07T05:54:51.440Z,2.70
2023-05-07T05:57:18.177Z,2.90
2023-05-07T05:59:45.078Z,2.90
2023-05-07T06:02:11.692Z,2.73
2023-05-07T06:04:38.339Z,3.17
2023-05-07T06:07:05.071Z,2.47
2023-05-07T06:09:31.659Z,3.43
2023-05-07T06:12:00.583Z,2.60
2023-05-07T06:14:27.485Z,4.73
2023-05-07T06:16:54.080Z,4.20
2023-05-07T06:19:24.102Z,4.87
2023-05-07T06:21:51.279Z,6.73
2023-05-07T06:24:17.911Z,4.83
2023-05-07T06:26:44.519Z,4.00
2023-05-07T06:29:11.115Z,3.23
2023-05-07T06:31:37.783Z,3.50
2023-05-07T06:34:04.447Z,3.53
2023-05-07T06:36:31.144Z,3.23
2023-05-07T06:38:57.772Z,3.10
2023-05-07T06:41:24.472Z,3.40
2023-05-07T06:43:51.081Z,3.40
2023-05-07T06:46:17.718Z,4.50
2023-05-07T06:48:44.386Z,5.50
2023-05-07T06:51:10.974Z,3.63
2023-05-07T06:53:37.606Z,2.63
2023-05-07T06:56:04.268Z,2.70
2023-05-07T06:58:31.111Z,2.40
2023-05-07T07:00:57.692Z,2.57
2023-05-07T07:03:24.347Z,2.63
2023-05-07T07:05:55.164Z,2.30
2023-05-07T07:08:22.871Z,2.20
2023-05-07T07:10:49.912Z,2.10
2023-05-07T07:13:16.987Z,1.83
2023-05-07T07:15:44.838Z,3.10
2023-05-07T07:18:11.654Z,2.53
2023-05-07T07:20:38.383Z,2.30
2023-05-07T07:23:05.177Z,1.83
2023-05-07T07:25:31.929Z,1.83
2023-05-07T07:27:58.646Z,2.23
2023-05-07T07:30:25.727Z,2.17
2023-05-07T07:32:53.603Z,2.47
2023-05-07T07:35:20.281Z,2.73
2023-05-07T07:37:47.647Z,1.87
2023-05-07T07:40:15.597Z,1.73
2023-05-07T07:42:42.460Z,1.63
2023-05-07T07:45:09.427Z,2.20
2023-05-07T07:47:36.183Z,1.77
2023-05-07T07:50:02.873Z,1.77
2023-05-07T07:52:29.508Z,2.10
2023-05-07T07:54:56.240Z,2.13
2023-05-07T07:57:22.888Z,2.00
2023-05-07T07:59:50.024Z,1.93
2023-05-07T08:02:16.983Z,1.30
2023-05-07T08:04:44.374Z,1.73
2023-05-07T08:07:11.708Z,1.27
2023-05-07T08:09:39.397Z,1.50
2023-05-07T08:12:08.444Z,1.90
2023-05-07T08:14:37.245Z,1.67
2023-05-07T08:17:04.329Z,1.87
2023-05-07T08:19:30.996Z,2.17
2023-05-07T08:21:57.644Z,1.97
2023-05-07T08:24:24.270Z,2.27
2023-05-07T08:26:50.897Z,1.57
2023-05-07T08:29:17.466Z,1.57
2023-05-07T08:31:44.171Z,1.57
2023-05-07T08:34:10.799Z,1.90
2023-05-07T08:36:37.418Z,1.57
2023-05-07T08:39:04.394Z,1.70
2023-05-07T08:41:31.459Z,2.33
2023-05-07T08:44:01.045Z,1.50
2023-05-07T08:46:33.364Z,1.70
2023-05-07T08:49:00.717Z,1.90
2023-05-07T08:51:28.081Z,1.83
2023-05-07T08:53:54.727Z,1.53
2023-05-07T08:56:22.463Z,1.43
2023-05-07T08:58:49.494Z,1.60
2023-05-07T09:01:17.612Z,1.43
2023-05-07T09:03:47.052Z,1.60
2023-05-07T09:06:14.083Z,1.90
2023-05-07T09:08:40.695Z,1.57
2023-05-07T09:11:07.312Z,1.60
2023-05-07T09:13:33.951Z,1.57
2023-05-07T09:16:11.165Z,2.00
2023-05-07T09:18:44.734Z,1.83
2023-05-07T09:21:12.849Z,1.43
2023-05-07T09:23:40.390Z,1.90
2023-05-07T09:26:12.518Z,1.40
2023-05-07T09:28:41.359Z,1.60
2023-05-07T09:31:09.395Z,1.47
2023-05-07T09:33:36.203Z,2.43
2023-05-07T09:36:07.566Z,1.73
2023-05-07T09:38:39.313Z,1.83
2023-05-07T09:41:08.348Z,1.93
2023-05-07T09:43:36.408Z,1.57
2023-05-07T09:46:13.934Z,1.73
2023-05-07T09:48:42.641Z,1.40
2023-05-07T09:51:34.352Z,1.90
2023-05-07T09:54:04.231Z,1.57
2023-05-07T09:56:32.230Z,1.80
2023-05-07T09:59:01.400Z,2.27
2023-05-07T10:01:29.064Z,1.70
2023-05-07T10:03:56.346Z,1.37
2023-05-07T10:06:25.256Z,1.60
2023-05-07T10:08:53.785Z,2.03
2023-05-07T10:11:21.413Z,1.30
2023-05-07T10:13:49.398Z,1.40
2023-05-07T10:16:16.249Z,1.50
2023-05-07T10:18:44.509Z,1.40
2023-05-07T10:21:21.936Z,2.07
2023-05-07T10:23:59.101Z,1.43
2023-05-07T10:26:28.123Z,1.47
2023-05-07T10:29:03.478Z,1.20
2023-05-07T10:31:51.589Z,1.30
2023-05-07T10:34:23.872Z,1.53
2023-05-07T10:36:51.403Z,1.70
2023-05-07T10:39:18.455Z,1.67
2023-05-07T10:41:45.199Z,1.70
2023-05-07T10:44:12.369Z,1.70
2023-05-07T10:46:39.305Z,1.30
2023-05-07T10:49:08.975Z,1.50
2023-05-07T10:51:36.629Z,3.20
2023-05-07T10:54:12.230Z,1.70
2023-05-07T10:56:44.084Z,2.03
2023-05-07T10:59:24.701Z,1.80
2023-05-07T11:01:56.968Z,1.30
2023-05-07T11:04:32.473Z,1.53
2023-05-07T11:07:10.995Z,1.40
2023-05-07T11:10:04.761Z,1.57
2023-05-07T11:12:37.360Z,1.30
2023-05-07T11:15:05.427Z,1.50
2023-05-07T11:17:37.160Z,1.80
2023-05-07T11:20:05.549Z,1.63
2023-05-07T11:22:32.567Z,1.70
2023-05-07T11:25:03.542Z,1.40
2023-05-07T11:27:30.699Z,1.30
2023-05-07T11:29:57.584Z,2.07
2023-05-07T11:32:33.645Z,1.80
2023-05-07T11:35:01.737Z,1.70
2023-05-07T11:37:31.205Z,1.60
2023-05-07T11:40:09.017Z,1.80
2023-05-07T11:42:40.784Z,1.40
2023-05-07T11:45:08.366Z,1.60
2023-05-07T11:47:35.462Z,1.80
2023-05-07T11:50:09.295Z,1.63
2023-05-07T11:52:36.459Z,2.33
2023-05-07T11:55:05.365Z,1.20
2023-05-07T11:57:34.186Z,1.40
2023-05-07T12:00:03.432Z,1.70
2023-05-07T12:02:30.171Z,1.60
2023-05-07T12:04:57.017Z,2.37
2023-05-07T12:07:24.974Z,1.60
2023-05-07T12:09:51.710Z,2.00
2023-05-07T12:12:18.520Z,2.00
2023-05-07T12:14:46.834Z,1.60
2023-05-07T12:17:15.258Z,2.10
2023-05-07T12:19:43.897Z,1.80
2023-05-07T12:22:11.347Z,1.70
2023-05-07T12:24:49.206Z,1.70
2023-05-07T12:27:17.212Z,1.90
2023-05-07T12:29:51.588Z,1.63
2023-05-07T12:32:20.341Z,1.90
2023-05-07T12:34:50.357Z,1.77
2023-05-07T12:37:17.428Z,1.73
2023-05-07T12:40:05.089Z,2.10
2023-05-07T12:42:36.523Z,1.90
2023-05-07T12:45:17.442Z,1.97
2023-05-07T12:47:46.279Z,1.40
2023-05-07T12:50:15.091Z,1.73
2023-05-07T12:52:41.986Z,1.37
2023-05-07T12:55:10.305Z,1.20
2023-05-07T12:57:49.240Z,1.60
2023-05-07T13:00:16.271Z,1.20
2023-05-07T13:02:47.854Z,1.20
2023-05-07T13:05:15.076Z,1.23
2023-05-07T13:07:42.628Z,1.30
2023-05-07T13:10:09.901Z,1.37
2023-05-07T13:12:36.822Z,1.50
2023-05-07T13:15:03.653Z,1.33
2023-05-07T13:17:32.731Z,1.73
2023-05-07T13:19:59.587Z,1.73
2023-05-07T13:22:26.278Z,1.50
2023-05-07T13:24:52.824Z,1.97
2023-05-07T13:27:20.494Z,1.30
2023-05-07T13:29:47.070Z,1.50
2023-05-07T13:32:13.740Z,1.50
2023-05-07T13:34:41.494Z,1.53
2023-05-07T13:37:11.404Z,1.50
2023-05-07T13:39:38.326Z,1.30
2023-05-07T13:42:04.974Z,1.63
2023-05-07T13:44:31.558Z,1.63
2023-05-07T13:46:58.133Z,1.70
2023-05-07T13:49:25.019Z,2.00
2023-05-07T13:51:51.790Z,2.03
2023-05-07T13:54:18.416Z,1.43
2023-05-07T13:56:47.033Z,2.77
2023-05-07T13:59:15.285Z,2.47
2023-05-07T14:01:42.135Z,2.97
2023-05-07T14:04:08.941Z,2.67
2023-05-07T14:06:40.117Z,2.27
2023-05-07T14:09:06.752Z,2.37
2023-05-07T14:11:34.205Z,2.40
2023-05-07T14:14:02.618Z,2.23
2023-05-07T14:16:29.353Z,2.60
2023-05-07T14:18:57.891Z,2.40
2023-05-07T14:21:25.064Z,2.40
2023-05-07T14:23:52.022Z,1.90
2023-05-07T14:26:18.701Z,2.30
2023-05-07T14:28:47.235Z,2.53
2023-05-07T14:31:14.282Z,3.03
2023-05-07T14:33:42.235Z,2.77
2023-05-07T14:36:09.182Z,3.30
2023-05-07T14:38:36.882Z,3.33
2023-05-07T14:41:03.798Z,3.30
2023-05-07T14:43:30.402Z,2.97
2023-05-07T14:45:57.051Z,3.70
2023-05-07T14:48:23.717Z,3.90
2023-05-07T14:50:51.398Z,4.00
2023-05-07T14:53:18.107Z,3.90
2023-05-07T14:55:44.736Z,3.27
2023-05-07T14:58:12.143Z,4.40
2023-05-07T15:00:38.868Z,4.77
2023-05-07T15:03:10.481Z,4.53
2023-05-07T15:05:39.222Z,5.33
2023-05-07T15:08:06.286Z,4.97
2023-05-07T15:10:41.639Z,5.50
2023-05-07T15:13:11.220Z,5.50
2023-05-07T15:15:40.697Z,5.30
2023-05-07T15:18:07.486Z,6.10
2023-05-07T15:20:34.288Z,5.20
2023-05-07T15:23:01.203Z,5.40
2023-05-07T15:25:27.819Z,5.80
2023-05-07T15:27:54.395Z,5.17
2023-05-07T15:30:21.122Z,6.80
2023-05-07T15:32:48.396Z,10.23
2023-05-07T15:35:15.414Z,5.67
2023-05-07T15:37:42.117Z,5.27
2023-05-07T15:40:09.402Z,3.90
2023-05-07T15:42:36.020Z,4.40
2023-05-07T15:45:02.873Z,5.00
2023-05-07T15:47:33.429Z,4.37
2023-05-07T15:50:00.116Z,5.90
2023-05-07T15:52:27.862Z,5.07
2023-05-07T15:54:54.814Z,4.30
2023-05-07T15:57:21.508Z,4.43
2023-05-07T15:59:48.438Z,4.13
2023-05-07T16:02:15.398Z,5.47
2023-05-07T16:04:42.236Z,4.63
2023-05-07T16:07:11.058Z,5.47
2023-05-07T16:09:39.075Z,5.57
2023-05-07T16:12:06.076Z,5.23
2023-05-07T16:14:32.766Z,4.47
2023-05-07T16:16:59.368Z,4.40
2023-05-07T16:19:26.008Z,4.47
2023-05-07T16:21:53.013Z,4.87
2023-05-07T16:24:19.599Z,4.87
2023-05-07T16:26:46.213Z,4.90
2023-05-07T16:29:12.911Z,5.20
2023-05-07T16:31:39.581Z,5.53
2023-05-07T16:34:06.185Z,5.40
2023-05-07T16:36:32.826Z,5.47
2023-05-07T16:38:59.443Z,3.87
2023-05-07T16:41:26.073Z,6.17
2023-05-07T16:43:52.666Z,5.43
2023-05-07T16:46:19.315Z,4.97
2023-05-07T16:48:46.162Z,6.20
2023-05-07T16:51:12.774Z,6.27
2023-05-07T16:53:39.347Z,5.47
2023-05-07T16:56:06.537Z,5.80
2023-05-07T16:58:35.890Z,5.77
2023-05-07T17:01:02.585Z,5.70
2023-05-07T17:03:29.904Z,6.83
2023-05-07T17:05:56.672Z,5.67
2023-05-07T17:08:23.269Z,6.20
2023-05-07T17:10:49.864Z,5.60
2023-05-07T17:13:16.508Z,5.30
2023-05-07T17:15:47.510Z,6.20
2023-05-07T17:18:14.681Z,5.30
2023-05-07T17:20:41.604Z,6.00
2023-05-07T17:23:08.210Z,6.33
2023-05-07T17:25:36.089Z,5.87
2023-05-07T17:28:03.446Z,5.50
2023-05-07T17:30:30.164Z,6.27
2023-05-07T17:33:03.802Z,5.80
2023-05-07T17:35:36.119Z,6.13
2023-05-07T17:38:02.793Z,5.80
2023-05-07T17:40:32.169Z,5.40
2023-05-07T17:42:59.617Z,6.77
2023-05-07T17:45:26.396Z,6.20
2023-05-07T17:47:53.030Z,7.07
2023-05-07T17:50:21.282Z,6.00
2023-05-07T17:52:48.111Z,5.50
2023-05-07T17:55:14.787Z,5.70
2023-05-07T17:57:41.449Z,5.87
2023-05-07T18:00:09.753Z,6.80
2023-05-07T18:02:36.817Z,5.40
2023-05-07T18:05:05.106Z,6.33
2023-05-07T18:07:31.859Z,5.30
2023-05-07T18:09:58.441Z,5.20
2023-05-07T18:12:27.366Z,5.40
2023-05-07T18:14:54.363Z,6.30
2023-05-07T18:17:24.140Z,5.87
2023-05-07T18:19:54.003Z,6.97
2023-05-07T18:22:21.860Z,5.57
2023-05-07T18:24:49.877Z,5.37
2023-05-07T18:27:16.804Z,6.30
2023-05-07T18:29:43.435Z,6.90
2023-05-07T18:32:10.114Z,7.73
2023-05-07T18:34:36.785Z,8.33
2023-05-07T18:37:03.401Z,6.90
2023-05-07T18:39:30.800Z,6.70
2023-05-07T18:41:58.079Z,7.30
2023-05-07T18:44:25.056Z,6.67
2023-05-07T18:46:51.691Z,6.73
2023-05-07T18:49:18.366Z,8.97
2023-05-07T18:51:46.160Z,8.90
2023-05-07T18:54:14.917Z,8.97
2023-05-07T18:56:42.389Z,8.27
2023-05-07T18:59:09.134Z,7.80
2023-05-07T19:01:35.811Z,7.77
2023-05-07T19:04:04.622Z,8.43
2023-05-07T19:06:33.456Z,7.27
2023-05-07T19:09:05.444Z,7.07
2023-05-07T19:11:36.165Z,7.70
2023-05-07T19:16:51.099Z,7.73
2023-05-07T19:19:18.059Z,7.10
2023-05-07T19:21:44.863Z,7.40
2023-05-07T19:24:11.630Z,8.00
2023-05-07T19:26:39.643Z,8.20
2023-05-07T19:29:17.374Z,8.73
2023-05-07T19:31:45.141Z,8.40
2023-05-07T19:34:13.839Z,7.97
2023-05-07T19:36:40.727Z,7.17
2023-05-07T19:39:07.434Z,8.00
2023-05-07T19:41:34.146Z,9.30
2023-05-07T19:44:00.909Z,19.03
2023-05-07T19:46:27.848Z,21.33
2023-05-07T19:48:54.471Z,19.27
2023-05-07T19:51:21.184Z,20.37
2023-05-07T19:53:47.852Z,12.13
2023-05-07T19:56:15.786Z,14.17
2023-05-07T19:58:42.416Z,10.03
2023-05-07T20:01:09.278Z,10.57
2023-05-07T20:03:36.240Z,11.10
2023-05-07T20:06:03.161Z,9.80
2023-05-07T20:08:31.137Z,9.90
2023-05-07T20:10:59.814Z,9.37
2023-05-07T20:13:27.210Z,10.53
2023-05-07T20:15:58.435Z,10.37
2023-05-07T20:18:26.187Z,16.03
2023-05-07T20:20:52.844Z,14.60
2023-05-07T20:23:19.767Z,12.00
2023-05-07T20:25:47.737Z,21.90
2023-05-07T20:28:14.590Z,11.93
2023-05-07T20:30:41.305Z,13.47
2023-05-07T20:33:08.003Z,24.40
2023-05-07T20:35:34.801Z,17.93
2023-05-07T20:38:01.571Z,23.03
2023-05-07T20:40:28.261Z,25.97
2023-05-07T20:42:54.965Z,13.80
2023-05-07T20:45:21.850Z,10.57
2023-05-07T20:47:49.685Z,9.47
2023-05-07T20:50:16.435Z,7.43
2023-05-07T20:52:43.164Z,4.30
2023-05-07T20:55:09.800Z,5.27
2023-05-07T20:57:36.396Z,6.90
2023-05-07T21:00:03.837Z,6.93
2023-05-07T21:02:30.554Z,6.50
2023-05-07T21:04:57.375Z,9.73
2023-05-07T21:07:24.034Z,5.50
2023-05-07T21:09:51.816Z,5.10
2023-05-07T21:12:21.664Z,3.97
2023-05-07T21:14:49.014Z,4.10
2023-05-07T21:17:15.631Z,4.17
2023-05-07T21:19:43.260Z,4.20
2023-05-07T21:22:10.117Z,5.30
2023-05-07T21:24:36.740Z,5.73
2023-05-07T21:27:03.622Z,5.20
2023-05-07T21:29:30.296Z,7.00
2023-05-07T21:31:57.126Z,5.97
2023-05-07T21:34:23.772Z,6.20
2023-05-07T21:36:50.723Z,5.60
2023-05-07T21:39:18.422Z,5.30
2023-05-07T21:41:46.116Z,4.70
2023-05-07T21:44:12.683Z,4.77
2023-05-07T21:46:39.399Z,4.47
2023-05-07T21:49:06.121Z,4.93
2023-05-07T21:51:34.543Z,6.80
2023-05-07T21:54:01.177Z,5.60
2023-05-07T21:56:27.906Z,5.70
2023-05-07T21:58:54.476Z,5.03
2023-05-07T22:01:21.111Z,4.27
2023-05-07T22:03:47.996Z,4.70
2023-05-07T22:06:17.456Z,4.30
2023-05-07T22:08:44.044Z,5.43
2023-05-07T22:11:10.623Z,4.90
2023-05-07T22:13:37.249Z,4.80
2023-05-07T22:16:04.095Z,7.37
2023-05-07T22:18:30.676Z,4.77
2023-05-07T22:20:57.241Z,5.77
2023-05-07T22:23:23.877Z,4.40
2023-05-07T22:25:50.601Z,4.57
2023-05-07T22:28:17.305Z,5.30
2023-05-07T22:30:44.130Z,4.73
2023-05-07T22:33:10.806Z,5.00
2023-05-07T22:35:37.433Z,4.70
2023-05-07T22:38:04.208Z,5.50
2023-05-07T22:40:30.763Z,5.57
2023-05-07T22:42:57.408Z,4.83
2023-05-07T22:45:23.996Z,4.70
2023-05-07T22:47:50.648Z,4.60
2023-05-07T22:50:18.114Z,5.70
2023-05-07T22:52:44.700Z,5.20
2023-05-07T22:55:11.318Z,5.00
2023-05-07T22:57:37.931Z,5.23
2023-05-07T23:00:06.487Z,5.70
2023-05-07T23:02:33.422Z,4.93
2023-05-07T23:05:03.124Z,4.53
2023-05-07T23:07:29.713Z,4.73
2023-05-07T23:09:56.352Z,5.30
2023-05-07T23:12:22.989Z,5.60
2023-05-07T23:14:49.592Z,5.00
2023-05-07T23:17:16.252Z,5.47
2023-05-07T23:19:43.100Z,5.17
2023-05-07T23:22:10.246Z,5.23
2023-05-07T23:24:36.926Z,5.40
2023-05-07T23:27:07.237Z,4.93
2023-05-07T23:29:34.596Z,5.67
2023-05-07T23:32:01.807Z,6.87
2023-05-07T23:34:28.437Z,5.10
2023-05-07T23:36:55.049Z,5.10
2023-05-07T23:39:21.661Z,5.67
2023-05-07T23:41:48.482Z,5.93
2023-05-07T23:44:16.620Z,5.40
2023-05-07T23:46:46.546Z,5.00
2023-05-07T23:49:13.263Z,6.03
2023-05-07T23:51:40.013Z,6.30
2023-05-07T23:54:07.181Z,6.70
2023-05-07T23:56:34.068Z,6.10
2023-05-07T23:59:00.876Z,6.93
